createdAt,value
2018-11-29T00:08:05.018Z,-8.49
2018-11-29T00:18:23.214Z,-8.58
2018-11-29T00:28:41.848Z,-8.50
2018-11-29T00:38:59.747Z,-8.72
2018-11-29T00:49:20.670Z,-8.66
2018-11-29T00:59:39.379Z,-8.96
2018-11-29T01:09:58.014Z,-8.90
2018-11-29T01:20:17.365Z,-8.72
2018-11-29T01:30:35.937Z,-8.89
2018-11-29T01:40:53.992Z,-9.18
2018-11-29T01:51:12.305Z,-9.29
2018-11-29T02:01:31.850Z,-9.14
2018-11-29T02:11:49.627Z,-9.13
2018-11-29T02:22:08.149Z,-9.10
2018-11-29T02:32:27.329Z,-9.42
2018-11-29T02:42:46.163Z,-9.41
2018-11-29T02:53:04.962Z,-9.35
2018-11-29T03:03:23.198Z,-9.34
2018-11-29T03:13:41.733Z,-9.49
2018-11-29T03:24:00.822Z,-9.35
2018-11-29T03:34:20.294Z,-9.38
2018-11-29T03:44:38.786Z,-9.40
2018-11-29T03:54:58.115Z,-9.56
2018-11-29T04:05:16.030Z,-9.69
2018-11-29T04:15:34.478Z,-9.45
2018-11-29T04:25:52.687Z,-9.38
2018-11-29T04:36:11.280Z,-9.54
2018-11-29T04:46:44.438Z,-9.82
2018-11-29T04:57:03.141Z,-9.87
2018-11-29T05:07:25.869Z,-9.59
2018-11-29T05:17:45.267Z,-9.85
2018-11-29T05:28:03.775Z,-9.97
2018-11-29T05:38:22.520Z,-9.84
2018-11-29T05:48:41.097Z,-10.10
2018-11-29T05:58:59.824Z,-10.06
2018-11-29T06:09:19.242Z,-10.19
2018-11-29T06:19:37.691Z,-10.21
2018-11-29T06:29:56.767Z,-10.00
2018-11-29T06:40:16.778Z,-10.31
2018-11-29T06:50:35.476Z,-10.22
2018-11-29T07:00:54.034Z,-10.24
2018-11-29T07:11:12.337Z,-9.79
2018-11-29T07:21:50.494Z,-10.11
2018-11-29T07:32:11.747Z,-9.66
2018-11-29T07:42:31.273Z,-9.33
2018-11-29T07:52:50.363Z,-9.04
2018-11-29T08:03:08.595Z,-8.82
2018-11-29T08:13:26.932Z,-8.52
2018-11-29T08:23:44.966Z,-7.96
2018-11-29T08:34:04.402Z,-7.60
2018-11-29T08:44:22.848Z,-7.18
2018-11-29T08:54:42.367Z,-6.55
2018-11-29T09:05:01.014Z,-6.03
2018-11-29T09:15:19.401Z,-5.61
2018-11-29T09:25:38.501Z,-5.19
2018-11-29T09:35:57.449Z,-4.61
2018-11-29T09:46:15.934Z,-4.20
2018-11-29T09:56:34.638Z,-3.89
2018-11-29T10:06:54.375Z,-3.18
2018-11-29T10:17:13.400Z,-2.53
2018-11-29T10:27:32.472Z,-1.84
2018-11-29T10:37:51.184Z,-1.54
2018-11-29T10:48:18.116Z,-0.72
2018-11-29T10:58:37.222Z,0.36
2018-11-29T11:08:56.534Z,3.25
2018-11-29T11:19:15.296Z,3.54
2018-11-29T11:29:34.514Z,2.00
2018-11-29T11:39:52.709Z,1.63
2018-11-29T11:50:30.876Z,2.25
2018-11-29T12:00:49.456Z,1.95
2018-11-29T12:11:08.681Z,1.35
2018-11-29T12:21:28.303Z,1.36
2018-11-29T12:31:46.600Z,1.71
2018-11-29T12:42:07.482Z,2.14
2018-11-29T12:52:26.429Z,2.65
2018-11-29T13:03:00.830Z,3.06
2018-11-29T13:13:18.858Z,2.83
2018-11-29T13:23:37.257Z,3.79
2018-11-29T13:33:56.120Z,3.02
2018-11-29T13:44:15.091Z,2.45
2018-11-29T13:54:33.466Z,1.85
2018-11-29T14:04:51.955Z,1.12
2018-11-29T14:15:21.485Z,0.77
2018-11-29T14:25:40.728Z,0.42
2018-11-29T14:36:01.548Z,-0.16
2018-11-29T14:46:19.975Z,-0.76
2018-11-29T14:56:38.487Z,-1.32
2018-11-29T15:06:58.243Z,-1.89
2018-11-29T15:17:17.750Z,-2.24
2018-11-29T15:27:36.767Z,-2.48
2018-11-29T15:37:55.612Z,-2.95
2018-11-29T15:48:14.556Z,-3.11
2018-11-29T15:58:34.864Z,-3.37
2018-11-29T16:08:52.720Z,-3.72
2018-11-29T16:19:12.431Z,-3.94
2018-11-29T16:29:31.339Z,-4.29
2018-11-29T16:39:51.441Z,-4.32
2018-11-29T16:50:13.948Z,-4.62
2018-11-29T17:00:32.157Z,-4.58
2018-11-29T17:10:51.259Z,-4.81
2018-11-29T17:21:11.025Z,-5.10
2018-11-29T17:31:29.784Z,-5.43
2018-11-29T17:41:50.337Z,-5.58
2018-11-29T17:52:11.338Z,-5.70
2018-11-29T18:02:31.264Z,-5.88
2018-11-29T18:13:00.503Z,-5.82
2018-11-29T18:23:19.070Z,-6.03
2018-11-29T18:33:38.220Z,-6.25
2018-11-29T18:43:59.069Z,-6.55
2018-11-29T18:54:18.458Z,-6.63
2018-11-29T19:04:38.559Z,-6.70
2018-11-29T19:14:58.102Z,-6.49
2018-11-29T19:25:22.070Z,-6.93
2018-11-29T19:35:42.066Z,-6.62
2018-11-29T19:46:04.248Z,-7.24
2018-11-29T19:57:07.275Z,-7.21
2018-11-29T20:07:32.073Z,-7.40
2018-11-29T20:17:51.527Z,-7.49
2018-11-29T20:28:11.402Z,-7.60
2018-11-29T20:38:31.119Z,-7.92
2018-11-29T20:48:54.095Z,-7.80
2018-11-29T20:59:15.061Z,-7.63
2018-11-29T22:19:09.106Z,-8.66
2018-11-29T22:41:43.778Z,-8.83
